Time;durP1;ratioP1;P1;durP2;ratioP2;P2;SDS_P1;SDS_P2;PMS_P1;PMS_P2;Temp;Humidity;BMP_temperature;BMP_pressure;BME280_temperature;BME280_humidity;BME280_pressure;Samples;Min_cycle;Max_cycle;Signal;HPM_P1;HPM_P2
2023/11/01 00:00:44;;;;;;;10.18;2.20;;;16.20;96.70;;;;;;4991470;28;20042;-75
2023/11/01 00:03:13;;;;;;;5.38;1.92;;;16.20;96.70;;;;;;5003745;28;20145;-75
2023/11/01 00:05:42;;;;;;;8.68;2.53;;;16.20;96.70;;;;;;4993122;28;20118;-75
2023/11/01 00:08:10;;;;;;;6.95;2.17;;;16.00;96.70;;;;;;4996975;28;20059;-75
2023/11/01 00:10:38;;;;;;;6.38;1.67;;;16.00;96.70;;;;;;4987395;28;20038;-75
2023/11/01 00:13:06;;;;;;;8.18;2.08;;;15.90;96.70;;;;;;4979590;28;20089;-76
2023/11/01 00:15:34;;;;;;;9.73;2.08;;;16.00;96.70;;;;;;4987215;28;20056;-75
2023/11/01 00:18:03;;;;;;;6.65;1.90;;;16.00;96.70;;;;;;4963176;28;20054;-75
2023/11/01 00:20:32;;;;;;;7.65;1.58;;;16.00;96.70;;;;;;4986562;28;20054;-76
2023/11/01 00:23:01;;;;;;;4.10;1.40;;;16.00;96.70;;;;;;4979372;28;20046;-75
2023/11/01 00:25:29;;;;;;;5.60;1.40;;;15.90;96.70;;;;;;4992943;28;20419;-75
2023/11/01 00:27:57;;;;;;;7.68;1.23;;;15.90;96.70;;;;;;4998028;28;20046;-76
2023/11/01 00:30:26;;;;;;;5.75;1.52;;;15.90;96.70;;;;;;4985979;28;20863;-75
2023/11/01 00:32:55;;;;;;;6.55;1.40;;;15.90;96.70;;;;;;4986056;28;20077;-75
2023/11/01 00:35:23;;;;;;;5.47;1.52;;;15.80;96.70;;;;;;4991023;28;20133;-75
2023/11/01 00:37:51;;;;;;;6.43;1.38;;;15.80;96.70;;;;;;5000731;28;20073;-75
2023/11/01 00:40:20;;;;;;;8.98;1.52;;;15.70;96.70;;;;;;4996011;28;20045;-75
2023/11/01 00:42:48;;;;;;;7.50;1.67;;;15.70;96.70;;;;;;4990544;28;20726;-75
2023/11/01 00:45:16;;;;;;;7.18;1.23;;;15.80;96.70;;;;;;4986363;28;20526;-75
2023/11/01 00:47:43;;;;;;;9.80;1.42;;;15.80;96.70;;;;;;4976952;28;20046;-75
2023/11/01 00:50:11;;;;;;;8.98;1.80;;;15.80;96.70;;;;;;4986241;28;20046;-75
2023/11/01 00:52:39;;;;;;;7.72;1.60;;;15.80;96.70;;;;;;4977675;28;20077;-75
2023/11/01 00:55:07;;;;;;;5.18;1.33;;;15.70;96.70;;;;;;4990600;28;20066;-75
2023/11/01 00:57:37;;;;;;;6.05;1.38;;;15.70;96.70;;;;;;4994168;28;20054;-75
2023/11/01 01:00:07;;;;;;;9.50;1.63;;;15.70;96.70;;;;;;4989347;28;20074;-76
2023/11/01 01:02:35;;;;;;;6.10;1.70;;;15.70;96.70;;;;;;5015279;28;21461;-75
2023/11/01 01:05:04;;;;;;;4.47;1.30;;;15.70;96.70;;;;;;4991011;28;20041;-75
2023/11/01 01:07:31;;;;;;;4.95;1.50;;;15.80;96.70;;;;;;4986699;28;20046;-76
2023/11/01 01:09:59;;;;;;;10.13;1.70;;;15.70;96.70;;;;;;4985739;28;20038;-75
2023/11/01 01:12:27;;;;;;;6.30;1.88;;;15.70;96.70;;;;;;4997463;28;20046;-75
2023/11/01 01:14:57;;;;;;;6.50;1.98;;;15.60;96.70;;;;;;4993798;28;20425;-76
2023/11/01 01:17:25;;;;;;;8.52;1.85;;;15.60;96.70;;;;;;4984129;28;20093;-75
2023/11/01 01:19:53;;;;;;;7.60;1.92;;;15.60;96.70;;;;;;4983564;28;20049;-75
2023/11/01 01:22:24;;;;;;;6.05;1.83;;;15.70;96.70;;;;;;4985682;28;20516;-75
2023/11/01 01:24:52;;;;;;;5.85;2.00;;;15.70;96.70;;;;;;4991498;28;20053;-75
2023/11/01 01:27:20;;;;;;;9.95;2.30;;;15.60;96.70;;;;;;4991080;28;20499;-75
2023/11/01 01:29:48;;;;;;;7.03;1.70;;;15.60;96.70;;;;;;4981386;28;20051;-75
2023/11/01 01:32:17;;;;;;;9.77;2.42;;;15.50;96.70;;;;;;4984223;28;20412;-75
2023/11/01 01:34:45;;;;;;;9.40;2.10;;;15.50;96.70;;;;;;4986527;28;20554;-74
2023/11/01 01:37:12;;;;;;;9.20;2.67;;;15.40;96.70;;;;;;4986289;28;20124;-75
2023/11/01 01:39:40;;;;;;;9.52;2.30;;;15.40;96.70;;;;;;4984551;28;20467;-75
2023/11/01 01:42:08;;;;;;;8.60;2.13;;;15.40;96.70;;;;;;5000341;28;20042;-76
2023/11/01 01:44:36;;;;;;;5.65;1.75;;;15.40;96.70;;;;;;4986211;28;20071;-76
2023/11/01 01:47:05;;;;;;;6.97;1.95;;;15.30;96.70;;;;;;4990561;28;20485;-75
2023/11/01 01:49:35;;;;;;;9.05;1.90;;;15.30;96.70;;;;;;4994895;28;20153;-75
2023/11/01 01:52:12;;;;;;;9.18;2.17;;;15.40;96.70;;;;;;4997461;28;20129;-75
2023/11/01 01:54:40;;;;;;;8.80;1.67;;;15.50;96.70;;;;;;4994156;28;20039;-75
2023/11/01 01:57:09;;;;;;;7.05;1.83;;;15.50;96.70;;;;;;4999645;28;20531;-75
2023/11/01 01:59:37;;;;;;;8.55;2.00;;;15.40;96.70;;;;;;4998344;28;20072;-75
2023/11/01 02:02:08;;;;;;;6.60;1.67;;;15.40;96.70;;;;;;4992999;28;20056;-75
2023/11/01 02:04:37;;;;;;;7.00;1.70;;;15.40;96.70;;;;;;5016405;28;20054;-75
2023/11/01 02:07:06;;;;;;;6.63;1.60;;;15.40;96.70;;;;;;4993360;28;20057;-75
2023/11/01 02:09:33;;;;;;;5.85;1.40;;;15.30;96.70;;;;;;4982757;28;20511;-75
2023/11/01 02:12:01;;;;;;;5.97;2.15;;;15.40;96.70;;;;;;4983897;28;20082;-75
2023/11/01 02:14:29;;;;;;;7.22;1.83;;;15.40;96.70;;;;;;4983713;28;20038;-75
2023/11/01 02:16:57;;;;;;;7.53;1.73;;;15.40;96.70;;;;;;4983955;28;20054;-75
2023/11/01 02:19:25;;;;;;;7.82;1.65;;;15.50;96.70;;;;;;4998932;28;20043;-75
2023/11/01 02:21:55;;;;;;;7.05;2.13;;;15.40;96.70;;;;;;4978027;28;20054;-75
2023/11/01 02:24:24;;;;;;;7.93;1.55;;;15.30;96.70;;;;;;5001966;28;20495;-75
2023/11/01 02:26:52;;;;;;;6.97;1.50;;;15.30;96.70;;;;;;5013826;28;20046;-75
2023/11/01 02:29:22;;;;;;;5.43;1.80;;;15.30;96.70;;;;;;4993017;28;20407;-76
2023/11/01 02:31:50;;;;;;;5.60;1.48;;;15.30;96.70;;;;;;4986446;28;20156;-75
2023/11/01 02:34:19;;;;;;;5.80;1.50;;;15.30;96.70;;;;;;4983552;28;20093;-75
2023/11/01 02:36:48;;;;;;;8.73;2.20;;;15.30;96.70;;;;;;4982722;28;20061;-74
2023/11/01 02:39:16;;;;;;;5.28;1.35;;;15.20;96.70;;;;;;4967500;28;20042;-75
2023/11/01 02:41:47;;;;;;;3.75;1.33;;;15.40;96.70;;;;;;4983680;28;20530;-75
2023/11/01 02:44:15;;;;;;;9.05;2.35;;;15.30;96.70;;;;;;4982965;28;20060;-75
2023/11/01 02:46:43;;;;;;;9.15;1.90;;;15.30;96.70;;;;;;4984049;28;20069;-75
2023/11/01 02:49:11;;;;;;;5.50;1.55;;;15.20;96.70;;;;;;4990455;28;21195;-75
2023/11/01 02:51:39;;;;;;;6.78;1.48;;;15.20;96.70;;;;;;4999774;28;20598;-75
2023/11/01 02:54:07;;;;;;;9.13;1.83;;;15.10;96.70;;;;;;4973313;28;20093;-75
2023/11/01 02:56:35;;;;;;;5.55;1.75;;;15.10;96.70;;;;;;4991502;28;20070;-75
2023/11/01 02:59:04;;;;;;;5.57;1.98;;;15.10;96.70;;;;;;4985160;28;20043;-77
2023/11/01 03:01:33;;;;;;;6.28;1.40;;;15.10;96.70;;;;;;4990330;28;20447;-75
2023/11/01 03:04:01;;;;;;;5.15;1.50;;;15.10;96.70;;;;;;4992302;28;20205;-75
2023/11/01 03:06:29;;;;;;;5.53;1.35;;;15.10;96.70;;;;;;4998775;28;20543;-75
2023/11/01 03:08:57;;;;;;;5.13;1.38;;;15.00;96.70;;;;;;4984134;28;20122;-77
2023/11/01 03:11:25;;;;;;;6.35;1.90;;;15.00;96.70;;;;;;4999397;28;20504;-75
2023/11/01 03:13:52;;;;;;;8.93;1.88;;;15.00;96.70;;;;;;4999082;28;20051;-75
2023/11/01 03:16:22;;;;;;;5.82;1.50;;;15.00;96.70;;;;;;4984000;28;20419;-75
2023/11/01 03:18:50;;;;;;;5.38;1.58;;;15.00;96.70;;;;;;4989755;28;20181;-75
2023/11/01 03:21:18;;;;;;;7.57;1.50;;;14.90;96.70;;;;;;4997173;28;20057;-76
2023/11/01 03:23:45;;;;;;;6.38;1.67;;;14.90;96.70;;;;;;5007516;28;20049;-75
2023/11/01 03:26:13;;;;;;;8.25;1.92;;;14.80;96.70;;;;;;4985042;28;20034;-74
2023/11/01 03:28:41;;;;;;;6.65;2.15;;;14.80;96.70;;;;;;4985281;28;20321;-75
2023/11/01 03:31:09;;;;;;;5.10;1.80;;;14.90;96.70;;;;;;4993995;28;20049;-75
2023/11/01 03:33:38;;;;;;;5.30;1.63;;;14.90;96.70;;;;;;4999832;28;20061;-75
2023/11/01 03:36:07;;;;;;;4.88;1.77;;;14.90;96.70;;;;;;4967606;28;20054;-76
2023/11/01 03:38:35;;;;;;;5.85;1.63;;;14.90;96.70;;;;;;4983227;28;20057;-74
2023/11/01 03:41:04;;;;;;;5.07;1.88;;;14.90;96.70;;;;;;4981424;28;20421;-74
2023/11/01 03:43:33;;;;;;;6.78;1.60;;;14.90;96.70;;;;;;4987561;28;20836;-75
2023/11/01 03:46:01;;;;;;;4.07;1.50;;;14.80;96.70;;;;;;4994756;28;20084;-75
2023/11/01 03:48:29;;;;;;;5.43;2.00;;;14.80;96.70;;;;;;5006156;28;20046;-75
2023/11/01 03:50:59;;;;;;;6.93;2.30;;;14.80;96.70;;;;;;4992906;28;20042;-75
2023/11/01 03:53:27;;;;;;;7.05;1.73;;;14.80;96.70;;;;;;4999446;28;20505;-75
2023/11/01 03:55:54;;;;;;;7.68;1.73;;;14.80;96.70;;;;;;5011675;28;20097;-75
2023/11/01 03:58:22;;;;;;;5.47;1.65;;;14.90;96.70;;;;;;4987669;28;21027;-75
2023/11/01 04:00:50;;;;;;;5.47;1.80;;;14.90;96.70;;;;;;4980544;28;20054;-75
2023/11/01 04:03:18;;;;;;;9.70;1.73;;;15.00;96.70;;;;;;4985702;28;20035;-75
2023/11/01 04:05:46;;;;;;;6.85;1.60;;;15.00;96.70;;;;;;4990846;28;20042;-76
2023/11/01 04:08:15;;;;;;;4.25;1.27;;;14.90;96.70;;;;;;4987080;28;20128;-76
2023/11/01 04:10:43;;;;;;;7.18;2.30;;;14.90;96.70;;;;;;4994140;28;20046;-75
2023/11/01 04:13:11;;;;;;;9.32;2.05;;;15.00;96.70;;;;;;4991122;28;20502;-76
2023/11/01 04:15:39;;;;;;;8.13;1.80;;;15.00;96.70;;;;;;4993649;28;20430;-76
2023/11/01 04:18:07;;;;;;;5.90;1.80;;;14.90;96.70;;;;;;4993782;28;20593;-74
2023/11/01 04:20:35;;;;;;;7.38;1.95;;;14.90;96.70;;;;;;5020518;28;20498;-75
2023/11/01 04:23:03;;;;;;;6.25;1.55;;;14.90;96.70;;;;;;4996910;28;20496;-74
2023/11/01 04:25:33;;;;;;;7.78;1.50;;;14.90;96.70;;;;;;4985696;28;20049;-74
2023/11/01 04:28:01;;;;;;;8.05;1.80;;;14.90;96.70;;;;;;4985654;28;20121;-75
2023/11/01 04:30:38;;;;;;;7.30;1.58;;;14.80;96.70;;;;;;4984832;28;20511;-75
2023/11/01 04:33:10;;;;;;;5.28;1.63;;;14.90;96.70;;;;;;4985465;28;20059;-75
2023/11/01 04:35:38;;;;;;;7.00;1.70;;;14.90;96.70;;;;;;4977147;28;20053;-75
2023/11/01 04:38:06;;;;;;;6.85;1.52;;;14.80;96.70;;;;;;4977195;28;20472;-75
2023/11/01 04:40:35;;;;;;;7.75;1.75;;;14.80;96.70;;;;;;4985921;28;20053;-75
2023/11/01 04:43:03;;;;;;;9.25;1.63;;;14.70;96.70;;;;;;4988709;28;20053;-75
2023/11/01 04:45:31;;;;;;;8.45;1.83;;;14.70;96.70;;;;;;4992756;28;20057;-75
2023/11/01 04:47:59;;;;;;;4.40;1.10;;;14.70;96.70;;;;;;5014648;28;20267;-75
2023/11/01 04:50:28;;;;;;;11.00;2.40;;;14.70;96.70;;;;;;5000712;28;20073;-75
2023/11/01 04:52:57;;;;;;;8.30;1.70;;;14.70;96.70;;;;;;5001436;28;20046;-75
2023/11/01 04:55:25;;;;;;;7.60;1.60;;;14.70;96.70;;;;;;4984687;28;20053;-75
2023/11/01 04:57:54;;;;;;;7.25;1.75;;;14.60;96.70;;;;;;4971183;28;20054;-75
2023/11/01 05:00:22;;;;;;;8.90;1.67;;;14.60;96.70;;;;;;4996860;28;20088;-75
2023/11/01 05:02:51;;;;;;;5.70;1.30;;;14.60;96.70;;;;;;4991602;28;20137;-75
2023/11/01 05:05:19;;;;;;;5.85;1.73;;;14.60;96.70;;;;;;4994121;28;20519;-75
2023/11/01 05:07:47;;;;;;;5.38;1.38;;;14.60;96.70;;;;;;5002951;28;20048;-75
2023/11/01 05:10:15;;;;;;;5.00;1.48;;;14.60;96.70;;;;;;5011013;28;20416;-75
2023/11/01 05:12:43;;;;;;;7.60;2.17;;;14.60;96.70;;;;;;5001087;28;20496;-75
2023/11/01 05:15:13;;;;;;;9.00;1.77;;;14.60;96.70;;;;;;4984415;28;20566;-75
2023/11/01 05:17:41;;;;;;;9.07;1.55;;;14.60;96.70;;;;;;4986829;28;20510;-75
2023/11/01 05:20:10;;;;;;;6.43;1.35;;;14.60;96.70;;;;;;4999761;28;20491;-75
2023/11/01 05:22:38;;;;;;;6.65;1.45;;;14.70;96.70;;;;;;4995194;28;20114;-75
2023/11/01 05:25:13;;;;;;;3.75;1.10;;;14.70;96.70;;;;;;4986285;28;20050;-75
2023/11/01 05:27:42;;;;;;;5.50;1.55;;;14.70;96.70;;;;;;4995896;28;20056;-75
2023/11/01 05:30:15;;;;;;;6.05;1.85;;;14.60;96.70;;;;;;4989184;28;20062;-76
2023/11/01 05:32:48;;;;;;;5.18;1.38;;;14.50;96.70;;;;;;4987974;28;20677;-75
2023/11/01 05:35:16;;;;;;;10.10;1.70;;;14.60;96.70;;;;;;4985290;28;20051;-76
2023/11/01 05:37:45;;;;;;;3.95;1.10;;;14.50;96.70;;;;;;5005946;28;20539;-75
2023/11/01 05:40:13;;;;;;;4.45;1.08;;;14.50;96.70;;;;;;4987363;28;20113;-75
2023/11/01 05:42:42;;;;;;;7.95;1.65;;;14.60;96.70;;;;;;4995693;28;20539;-76
2023/11/01 05:45:17;;;;;;;8.35;1.50;;;14.60;96.70;;;;;;4992781;28;20528;-75
2023/11/01 05:47:52;;;;;;;6.00;1.60;;;14.60;96.70;;;;;;4994987;28;20042;-75
2023/11/01 05:50:25;;;;;;;5.57;1.55;;;14.60;96.70;;;;;;4988184;28;20050;-76
2023/11/01 05:52:56;;;;;;;5.03;1.20;;;14.60;96.70;;;;;;4984251;28;20058;-76
2023/11/01 05:55:25;;;;;;;7.65;1.40;;;14.60;96.70;;;;;;4984804;28;20050;-76
2023/11/01 05:58:13;;;;;;;4.55;1.10;;;14.70;96.70;;;;;;4994149;28;20061;-75
2023/11/01 06:00:44;;;;;;;8.80;1.60;;;14.70;96.70;;;;;;4984893;28;20057;-75
2023/11/01 06:03:16;;;;;;;4.30;1.25;;;14.70;96.70;;;;;;4988785;28;20125;-75
2023/11/01 06:05:44;;;;;;;4.13;1.00;;;14.60;96.70;;;;;;4998872;28;20555;-76
2023/11/01 06:08:13;;;;;;;3.28;1.00;;;14.60;96.70;;;;;;4980087;28;20448;-76
2023/11/01 06:10:42;;;;;;;5.90;1.48;;;14.70;96.70;;;;;;4983557;28;20396;-75
2023/11/01 06:13:09;;;;;;;4.32;1.02;;;14.70;96.70;;;;;;4978237;28;20047;-75
2023/11/01 06:15:38;;;;;;;6.28;1.25;;;14.70;96.70;;;;;;4985315;28;20050;-75
2023/11/01 06:18:07;;;;;;;5.80;1.65;;;14.80;96.70;;;;;;4997423;28;20052;-76
2023/11/01 06:20:36;;;;;;;6.43;1.55;;;14.80;96.70;;;;;;5009917;28;20045;-75
2023/11/01 06:23:04;;;;;;;4.22;1.13;;;14.80;96.70;;;;;;4994733;28;20111;-75
2023/11/01 06:25:32;;;;;;;6.32;1.85;;;14.80;96.70;;;;;;5000502;28;20050;-75
2023/11/01 06:28:00;;;;;;;6.05;1.20;;;14.80;96.70;;;;;;4994616;28;20043;-75
2023/11/01 06:30:29;;;;;;;5.05;1.55;;;14.90;96.70;;;;;;4983549;28;20042;-75
2023/11/01 06:32:57;;;;;;;9.00;4.70;;;14.90;96.70;;;;;;4978368;28;20061;-76
2023/11/01 06:35:26;;;;;;;7.05;2.35;;;14.90;96.70;;;;;;4999435;28;20050;-76
2023/11/01 06:37:54;;;;;;;5.78;2.00;;;14.80;96.70;;;;;;4987728;28;20089;-75
2023/11/01 06:40:22;;;;;;;6.65;2.10;;;14.80;96.70;;;;;;4986897;28;20105;-76
2023/11/01 06:42:50;;;;;;;4.50;1.50;;;14.90;96.70;;;;;;4990171;28;20042;-76
2023/11/01 06:45:18;;;;;;;6.10;1.52;;;14.90;96.70;;;;;;5006404;28;20042;-76
2023/11/01 06:47:46;;;;;;;7.50;1.77;;;14.90;96.70;;;;;;4997545;28;20177;-76
2023/11/01 06:50:14;;;;;;;8.55;1.60;;;14.90;96.70;;;;;;4986774;28;20543;-76
2023/11/01 06:52:45;;;;;;;4.25;1.45;;;14.90;96.70;;;;;;4986421;28;20484;-75
2023/11/01 06:55:13;;;;;;;6.70;1.33;;;15.00;96.70;;;;;;4998343;28;21115;-76
2023/11/01 06:57:41;;;;;;;4.68;1.20;;;14.90;96.70;;;;;;4995010;28;20045;-76
2023/11/01 07:00:10;;;;;;;7.07;1.70;;;15.00;96.70;;;;;;4990913;28;20504;-75
2023/11/01 07:02:38;;;;;;;5.03;1.05;;;15.00;96.70;;;;;;4986540;28;20035;-76
2023/11/01 07:05:06;;;;;;;4.82;1.00;;;15.10;96.70;;;;;;4998013;28;20136;-75
2023/11/01 07:07:34;;;;;;;6.70;1.65;;;15.10;96.70;;;;;;4976562;28;20854;-75
2023/11/01 07:10:05;;;;;;;3.72;1.60;;;15.10;96.70;;;;;;4988560;28;20060;-76
2023/11/01 07:12:33;;;;;;;5.03;1.30;;;15.00;96.70;;;;;;4981178;28;20050;-76
2023/11/01 07:15:01;;;;;;;7.68;1.50;;;15.00;96.70;;;;;;4978975;28;20046;-76
2023/11/01 07:17:29;;;;;;;5.82;1.55;;;15.00;96.70;;;;;;4983579;28;20058;-75
2023/11/01 07:19:57;;;;;;;9.95;2.13;;;15.10;96.70;;;;;;4987716;28;20049;-75
2023/11/01 07:22:26;;;;;;;4.78;1.58;;;15.10;96.70;;;;;;4989097;28;20049;-76
2023/11/01 07:24:56;;;;;;;6.53;1.17;;;15.20;96.70;;;;;;4992493;28;20062;-76
2023/11/01 07:27:25;;;;;;;7.00;1.30;;;15.20;96.70;;;;;;5001796;28;20976;-76
2023/11/01 07:29:53;;;;;;;7.80;1.83;;;15.20;96.70;;;;;;5004777;28;20038;-76
2023/11/01 07:32:21;;;;;;;37.08;20.92;;;15.10;96.70;;;;;;4987225;28;20054;-76
2023/11/01 07:34:50;;;;;;;36.60;18.40;;;15.10;96.70;;;;;;4992470;28;21103;-76
2023/11/01 07:37:18;;;;;;;26.80;12.95;;;15.10;96.70;;;;;;5013983;28;20061;-76
2023/11/01 07:39:46;;;;;;;22.98;11.60;;;15.10;96.70;;;;;;4990362;28;20597;-76
2023/11/01 07:42:14;;;;;;;11.65;4.65;;;15.10;96.70;;;;;;4987770;28;20042;-76
2023/11/01 07:44:43;;;;;;;11.68;4.72;;;15.10;96.70;;;;;;5002013;28;20042;-75
2023/11/01 07:47:13;;;;;;;13.18;3.30;;;15.10;96.70;;;;;;4988372;28;20085;-76
2023/11/01 07:49:41;;;;;;;10.00;2.72;;;15.20;96.70;;;;;;5003869;28;20042;-76
2023/11/01 07:52:09;;;;;;;7.78;2.60;;;15.30;96.70;;;;;;5014263;28;20108;-76
2023/11/01 07:54:37;;;;;;;6.80;2.15;;;15.30;96.70;;;;;;4982121;28;20584;-76
2023/11/01 07:57:06;;;;;;;6.88;2.72;;;15.40;96.70;;;;;;4998402;28;20072;-76
2023/11/01 07:59:33;;;;;;;8.68;3.47;;;15.40;96.70;;;;;;5003923;28;20565;-76
2023/11/01 08:02:03;;;;;;;6.03;2.13;;;15.50;96.70;;;;;;4989443;28;20139;-76
2023/11/01 08:04:31;;;;;;;8.07;2.50;;;15.50;96.70;;;;;;4988443;28;20527;-77
2023/11/01 08:06:59;;;;;;;10.38;2.80;;;15.50;96.70;;;;;;5001451;28;20054;-75
2023/11/01 08:09:27;;;;;;;7.72;2.00;;;15.60;96.70;;;;;;4989194;28;20494;-76
2023/11/01 08:11:55;;;;;;;9.32;2.20;;;15.60;96.70;;;;;;5011361;28;20634;-75
2023/11/01 08:14:23;;;;;;;8.50;2.50;;;15.60;96.70;;;;;;4987068;28;20042;-76
2023/11/01 08:16:51;;;;;;;7.13;2.50;;;15.70;96.70;;;;;;4983725;28;20045;-76
2023/11/01 08:19:20;;;;;;;7.40;2.60;;;15.70;96.70;;;;;;4980799;28;20084;-75
2023/11/01 08:21:48;;;;;;;9.75;2.15;;;15.60;96.70;;;;;;4985326;28;20077;-76
2023/11/01 08:24:16;;;;;;;8.48;2.78;;;15.70;96.70;;;;;;4991093;28;20034;-76
2023/11/01 08:26:44;;;;;;;4.82;2.22;;;15.70;96.70;;;;;;4995990;28;20101;-76
2023/11/01 08:29:12;;;;;;;6.55;2.28;;;15.70;96.70;;;;;;4987701;28;20046;-76
2023/11/01 08:31:40;;;;;;;8.32;2.85;;;15.70;96.70;;;;;;5006528;28;20052;-76
2023/11/01 08:34:08;;;;;;;7.97;2.40;;;15.80;96.70;;;;;;5004625;28;20054;-76
2023/11/01 08:36:37;;;;;;;6.10;2.30;;;15.90;96.70;;;;;;5011831;28;20144;-76
2023/11/01 08:39:05;;;;;;;7.40;2.50;;;15.90;96.70;;;;;;4987117;28;20066;-75
2023/11/01 08:41:33;;;;;;;9.18;2.53;;;16.00;96.70;;;;;;4985911;28;20707;-81
2023/11/01 08:44:01;;;;;;;7.43;2.70;;;16.00;96.70;;;;;;4988910;28;20050;-81
2023/11/01 08:46:30;;;;;;;7.32;2.20;;;16.00;96.70;;;;;;5004594;28;20054;-82
2023/11/01 08:48:58;;;;;;;6.80;2.35;;;16.00;96.70;;;;;;4999666;28;20089;-82
2023/11/01 08:51:26;;;;;;;6.40;2.50;;;16.10;96.70;;;;;;4994106;28;20046;-81
2023/11/01 08:53:59;;;;;;;9.77;2.20;;;16.10;96.70;;;;;;4987662;28;20043;-82
2023/11/01 08:56:51;;;;;;;7.50;1.60;;;16.10;96.70;;;;;;4992605;28;20395;-77
2023/11/01 08:59:19;;;;;;;8.43;2.22;;;16.10;96.70;;;;;;5009600;28;20636;-77
2023/11/01 09:01:47;;;;;;;8.05;2.15;;;16.10;96.70;;;;;;4994446;28;20096;-77
2023/11/01 09:04:15;;;;;;;7.75;2.17;;;16.20;96.70;;;;;;4984931;28;20038;-78
2023/11/01 09:06:43;;;;;;;5.45;1.38;;;16.20;96.70;;;;;;4982794;28;20112;-78
2023/11/01 09:09:12;;;;;;;7.78;1.90;;;16.20;96.70;;;;;;4992205;28;20046;-77
2023/11/01 09:11:40;;;;;;;9.77;2.20;;;16.30;96.70;;;;;;5000773;28;20049;-78
2023/11/01 09:14:07;;;;;;;8.52;1.77;;;16.30;96.70;;;;;;5005521;28;20052;-78
2023/11/01 09:16:35;;;;;;;6.90;1.90;;;16.30;96.70;;;;;;4998726;28;20049;-78
2023/11/01 09:19:03;;;;;;;7.60;1.95;;;16.30;96.70;;;;;;5004617;28;20049;-78
2023/11/01 09:21:35;;;;;;;6.50;1.63;;;16.40;96.70;;;;;;4995052;28;20080;-77
2023/11/01 09:24:03;;;;;;;6.78;1.85;;;16.50;96.70;;;;;;5000837;28;20053;-77
2023/11/01 09:26:33;;;;;;;5.55;1.42;;;16.50;96.70;;;;;;4984052;28;20404;-77
2023/11/01 09:29:00;;;;;;;8.77;1.98;;;16.50;96.70;;;;;;5003251;28;20068;-77
2023/11/01 09:31:28;;;;;;;14.02;2.42;;;16.60;96.70;;;;;;4986143;28;20046;-79
2023/11/01 09:33:56;;;;;;;7.50;2.50;;;16.70;96.70;;;;;;4960571;28;20631;-80
2023/11/01 09:36:25;;;;;;;7.57;1.90;;;16.70;96.70;;;;;;4968202;28;20067;-80
2023/11/01 09:38:54;;;;;;;7.88;2.22;;;16.70;96.70;;;;;;4984693;28;20168;-79
2023/11/01 09:41:27;;;;;;;11.30;2.78;;;16.70;96.70;;;;;;4994738;28;20042;-81
2023/11/01 09:44:01;;;;;;;8.55;2.30;;;16.70;96.70;;;;;;4986926;28;20046;-83
2023/11/01 09:46:30;;;;;;;11.88;2.90;;;16.70;96.70;;;;;;4989994;28;20061;-79
2023/11/01 09:48:58;;;;;;;8.85;2.55;;;16.70;96.70;;;;;;4993571;28;20049;-77
2023/11/01 09:51:26;;;;;;;8.27;2.22;;;16.70;96.70;;;;;;4993017;28;20404;-77
2023/11/01 09:53:54;;;;;;;8.02;2.17;;;16.70;96.70;;;;;;4995409;28;20034;-78
2023/11/01 09:56:26;;;;;;;10.18;3.20;;;16.70;96.70;;;;;;4984322;28;20062;-77
2023/11/01 09:58:54;;;;;;;10.52;2.92;;;16.70;96.70;;;;;;4990603;28;20454;-75
2023/11/01 10:01:24;;;;;;;9.55;2.42;;;16.60;96.70;;;;;;4992938;28;20050;-76
2023/11/01 10:03:52;;;;;;;5.40;2.17;;;16.60;96.70;;;;;;4982194;28;20070;-77
2023/11/01 10:06:21;;;;;;;10.15;2.25;;;16.60;96.70;;;;;;4967330;28;20070;-77
2023/11/01 10:08:50;;;;;;;9.10;2.35;;;16.60;96.70;;;;;;4985576;28;20045;-77
2023/11/01 10:11:21;;;;;;;7.10;1.92;;;16.60;96.70;;;;;;4985144;28;20072;-77
2023/11/01 10:13:49;;;;;;;11.77;2.55;;;16.50;96.70;;;;;;4991314;28;20559;-76
2023/11/01 10:16:17;;;;;;;7.35;2.20;;;16.50;96.70;;;;;;4985531;28;20048;-77
2023/11/01 10:18:48;;;;;;;6.35;1.80;;;16.60;96.70;;;;;;4994629;28;20142;-76
2023/11/01 10:21:16;;;;;;;5.45;1.58;;;16.60;96.70;;;;;;4973867;28;20448;-77
2023/11/01 10:23:44;;;;;;;6.65;1.52;;;16.70;96.70;;;;;;4997002;28;20476;-77
2023/11/01 10:26:11;;;;;;;9.15;1.50;;;16.70;96.70;;;;;;4998806;28;20810;-76
2023/11/01 10:28:42;;;;;;;8.80;2.45;;;16.70;96.70;;;;;;4997207;28;20038;-76
2023/11/01 10:31:13;;;;;;;9.10;2.50;;;16.80;96.70;;;;;;5003178;28;20046;-76
2023/11/01 10:33:41;;;;;;;10.70;2.35;;;16.80;96.70;;;;;;4984700;28;20519;-76
2023/11/01 10:36:11;;;;;;;7.15;2.00;;;16.80;96.70;;;;;;4994543;28;20089;-79
2023/11/01 10:38:41;;;;;;;10.05;2.65;;;16.70;96.70;;;;;;4989031;28;20511;-78
2023/11/01 10:41:10;;;;;;;8.10;2.20;;;16.70;96.70;;;;;;4982783;28;20073;-77
2023/11/01 10:43:39;;;;;;;9.00;2.67;;;16.70;96.70;;;;;;5006736;28;20050;-78
2023/11/01 10:46:08;;;;;;;10.63;2.28;;;16.80;96.70;;;;;;4994065;28;20046;-80
2023/11/01 10:48:37;;;;;;;7.82;1.92;;;16.80;96.70;;;;;;4991408;28;20046;-78
2023/11/01 10:51:06;;;;;;;7.38;2.40;;;16.80;96.70;;;;;;4998129;28;20051;-78
2023/11/01 10:53:37;;;;;;;5.88;2.30;;;16.90;96.70;;;;;;4980647;28;20046;-79
2023/11/01 10:56:07;;;;;;;8.75;2.88;;;16.90;96.70;;;;;;4994298;28;20043;-78
2023/11/01 10:58:39;;;;;;;4.53;2.00;;;17.00;96.70;;;;;;4986083;28;20395;-79
2023/11/01 11:01:12;;;;;;;12.00;1.90;;;17.00;96.70;;;;;;4980480;28;20172;-79
2023/11/01 11:03:47;;;;;;;7.78;2.17;;;16.90;96.70;;;;;;4981206;28;20817;-78
2023/11/01 11:06:19;;;;;;;8.57;2.20;;;16.90;96.70;;;;;;4981848;28;20057;-79
2023/11/01 11:09:22;;;;;;;5.38;1.42;;;17.00;96.70;;;;;;4998766;28;20054;-78
2023/11/01 11:12:16;;;;;;;6.30;1.63;;;17.00;96.70;;;;;;4994011;28;20042;-81
2023/11/01 11:14:46;;;;;;;8.43;1.88;;;17.00;96.70;;;;;;4977119;28;20531;-81
2023/11/01 11:17:15;;;;;;;12.00;2.92;;;17.10;96.70;;;;;;4984442;28;20039;-78
2023/11/01 11:20:12;;;;;;;6.88;1.75;;;17.10;96.70;;;;;;4995015;28;20101;-79
2023/11/01 11:23:08;;;;;;;7.70;2.85;;;17.10;96.70;;;;;;4978339;28;20110;-78
2023/11/01 11:25:52;;;;;;;6.47;1.90;;;17.10;96.70;;;;;;4977006;28;20034;-79
2023/11/01 11:28:47;;;;;;;8.70;1.70;;;17.10;96.70;;;;;;4983102;28;20113;-77
2023/11/01 11:31:18;;;;;;;4.75;1.48;;;17.10;96.70;;;;;;4948969;28;20309;-83
2023/11/01 11:34:11;;;;;;;7.97;1.77;;;17.10;96.70;;;;;;4994886;28;20435;-78
2023/11/01 11:36:54;;;;;;;8.35;2.10;;;17.10;96.70;;;;;;4988303;28;20042;-84
2023/11/01 11:39:54;;;;;;;8.27;2.05;;;17.10;96.70;;;;;;4988454;28;20141;-83
2023/11/01 11:42:51;;;;;;;7.57;1.75;;;17.10;96.70;;;;;;4956464;28;20084;-83
2023/11/01 11:45:29;;;;;;;5.82;2.00;;;17.10;96.70;;;;;;4972043;28;20071;-79
2023/11/01 11:47:58;;;;;;;5.68;1.88;;;17.10;96.70;;;;;;4940107;28;20587;-78
2023/11/01 11:50:30;;;;;;;7.53;3.08;;;17.20;96.70;;;;;;4947530;28;20594;-77
2023/11/01 11:52:58;;;;;;;8.15;3.72;;;17.20;96.70;;;;;;4955833;28;20042;-77
2023/11/01 11:55:46;;;;;;;6.30;3.03;;;17.30;96.70;;;;;;4962338;28;20109;-78
2023/11/01 11:58:16;;;;;;;6.00;1.60;;;17.40;96.70;;;;;;4958737;28;20078;-78
2023/11/01 12:00:46;;;;;;;6.25;1.65;;;17.40;96.70;;;;;;4958215;28;20046;-77
2023/11/01 12:03:37;;;;;;;6.55;1.70;;;17.40;96.70;;;;;;4974820;28;20055;-77
2023/11/01 12:06:06;;;;;;;5.72;1.30;;;17.30;96.70;;;;;;4980293;28;20121;-79
2023/11/01 12:08:38;;;;;;;4.25;0.90;;;17.30;96.70;;;;;;4967096;28;20043;-76
2023/11/01 12:11:10;;;;;;;3.17;0.80;;;17.30;96.70;;;;;;4967473;28;20412;-76
2023/11/01 12:13:49;;;;;;;5.00;1.10;;;17.30;96.70;;;;;;4966869;28;20073;-76
2023/11/01 12:16:26;;;;;;;6.53;1.35;;;17.30;96.70;;;;;;4961331;28;20054;-76
2023/11/01 12:19:09;;;;;;;7.05;1.40;;;17.40;96.70;;;;;;4994105;28;20057;-76
2023/11/01 12:21:41;;;;;;;4.68;0.93;;;17.50;96.70;;;;;;4993751;28;20065;-76
2023/11/01 12:24:10;;;;;;;5.55;1.20;;;17.50;96.70;;;;;;5000221;28;20054;-76
2023/11/01 12:26:57;;;;;;;2.80;1.00;;;17.60;96.70;;;;;;4997836;28;20049;-76
2023/11/01 12:29:41;;;;;;;4.07;0.60;;;17.70;96.70;;;;;;5004159;28;20057;-76
2023/11/01 12:32:18;;;;;;;3.25;0.85;;;17.80;96.70;;;;;;5000957;28;20050;-76
2023/11/01 12:35:10;;;;;;;4.18;0.80;;;17.90;96.70;;;;;;4990943;28;20051;-76
2023/11/01 12:37:41;;;;;;;2.60;0.98;;;18.00;96.70;;;;;;4987324;28;20053;-76
2023/11/01 12:40:11;;;;;;;3.97;0.65;;;17.90;96.70;;;;;;4997054;28;20054;-76
2023/11/01 12:42:43;;;;;;;2.05;0.60;;;17.90;96.70;;;;;;4981500;28;20169;-76
2023/11/01 12:45:14;;;;;;;1.65;0.50;;;17.90;96.70;;;;;;4986727;28;20487;-76
2023/11/01 12:47:44;;;;;;;2.17;0.70;;;17.80;96.70;;;;;;4988788;28;20044;-76
2023/11/01 12:50:17;;;;;;;2.20;0.65;;;17.70;96.70;;;;;;5003883;28;20562;-76
2023/11/01 12:52:45;;;;;;;2.58;0.70;;;17.60;96.70;;;;;;4996224;28;20053;-76
2023/11/01 12:55:14;;;;;;;2.20;0.70;;;17.50;96.70;;;;;;4989197;28;20070;-76
2023/11/01 12:57:46;;;;;;;2.47;0.70;;;17.40;96.70;;;;;;5019421;28;20061;-76
2023/11/01 13:00:17;;;;;;;2.45;0.70;;;17.40;96.70;;;;;;4985865;28;20066;-76